Time;durP1;ratioP1;P1;durP2;ratioP2;P2;SDS_P1;SDS_P2;PMS_P1;PMS_P2;Temp;Humidity;BMP_temperature;BMP_pressure;BME280_temperature;BME280_humidity;BME280_pressure;Samples;Min_cycle;Max_cycle;Signal;HPM_P1;HPM_P2
2023/05/03 00:01:30;;;;;;;16.67;8.35;;;;;;;5.26;83.69;102788.47;5072102;28;20036;-51
2023/05/03 00:03:56;;;;;;;17.20;9.10;;;;;;;5.22;83.86;102789.94;5071972;28;20056;-51
2023/05/03 00:06:21;;;;;;;16.33;8.88;;;;;;;5.18;84.51;102789.56;5071942;28;20032;-50
2023/05/03 00:08:47;;;;;;;15.57;8.20;;;;;;;5.14;83.89;102778.19;5071881;28;20032;-51
2023/05/03 00:11:12;;;;;;;17.27;9.00;;;;;;;5.11;84.29;102788.78;5070623;28;20020;-51
2023/05/03 00:13:37;;;;;;;15.57;8.85;;;;;;;5.09;84.58;102786.25;5071645;28;20438;-49
2023/05/03 00:16:03;;;;;;;18.05;9.23;;;;;;;5.08;84.50;102784.56;5071502;28;20507;-51
2023/05/03 00:18:29;;;;;;;16.75;8.52;;;;;;;5.04;84.86;102782.50;5071552;28;20538;-49
2023/05/03 00:20:55;;;;;;;18.13;9.00;;;;;;;5.03;85.26;102783.56;5071744;28;20070;-49
2023/05/03 00:23:21;;;;;;;16.20;8.18;;;;;;;4.99;85.12;102785.91;5071671;28;20055;-48
2023/05/03 00:25:57;;;;;;;17.25;8.30;;;;;;;4.97;85.78;102779.78;5069964;28;20469;-50
2023/05/03 00:28:23;;;;;;;15.90;8.63;;;;;;;4.95;84.86;102774.53;5071603;28;20048;-49
2023/05/03 00:30:48;;;;;;;17.80;9.13;;;;;;;4.90;86.24;102773.50;5071429;28;20620;-51
2023/05/03 00:33:15;;;;;;;15.95;8.68;;;;;;;4.89;85.96;102780.06;5071408;28;20111;-50
2023/05/03 00:35:41;;;;;;;18.40;9.30;;;;;;;4.91;85.51;102783.41;5071494;28;20024;-50
2023/05/03 00:38:06;;;;;;;16.20;8.65;;;;;;;4.90;85.58;102781.75;5069600;28;20032;-51
2023/05/03 00:40:31;;;;;;;15.57;8.45;;;;;;;4.84;86.87;102778.78;5071554;28;20028;-49
2023/05/03 00:42:56;;;;;;;18.10;9.05;;;;;;;4.81;86.27;102776.50;5070097;28;20381;-48
2023/05/03 00:45:22;;;;;;;17.35;8.52;;;;;;;4.79;86.76;102777.78;5071446;28;20120;-49
2023/05/03 00:47:47;;;;;;;15.40;8.43;;;;;;;4.75;86.79;102782.84;5071493;28;20403;-49
2023/05/03 00:50:13;;;;;;;18.48;9.10;;;;;;;4.74;86.40;102785.81;5071488;28;20031;-52
2023/05/03 00:52:39;;;;;;;17.38;9.00;;;;;;;4.69;87.10;102790.06;5071484;28;20473;-49
2023/05/03 00:55:06;;;;;;;15.88;8.25;;;;;;;4.68;87.23;102802.06;5071480;28;20051;-49
2023/05/03 00:57:31;;;;;;;17.77;8.63;;;;;;;4.68;87.47;102788.38;5071387;28;20107;-49
2023/05/03 00:59:57;;;;;;;17.83;8.65;;;;;;;4.66;87.54;102784.16;5071300;28;20111;-49
2023/05/03 01:02:23;;;;;;;16.85;9.30;;;;;;;4.63;87.61;102790.09;5071119;28;20115;-51
2023/05/03 01:04:50;;;;;;;15.77;8.23;;;;;;;4.59;88.34;102786.09;5071256;28;20056;-48
2023/05/03 01:07:36;;;;;;;16.20;8.70;;;;;;;4.55;88.33;102780.22;5069838;28;20425;-48
2023/05/03 01:10:16;;;;;;;17.77;9.00;;;;;;;4.51;88.59;102787.19;5071382;28;20020;-49
2023/05/03 01:12:54;;;;;;;18.52;8.95;;;;;;;4.43;89.25;102780.06;5071220;28;20033;-50
2023/05/03 01:15:27;;;;;;;18.23;8.95;;;;;;;4.38;88.45;102777.13;5071020;28;20090;-50
2023/05/03 01:18:15;;;;;;;17.88;9.30;;;;;;;4.40;88.85;102777.75;5069819;28;20040;-49
2023/05/03 01:20:47;;;;;;;16.90;8.90;;;;;;;4.36;88.80;102773.75;5070802;28;20098;-48
2023/05/03 01:23:27;;;;;;;17.90;9.15;;;;;;;4.29;89.95;102779.28;5070924;28;20222;-50
2023/05/03 01:25:53;;;;;;;17.88;8.63;;;;;;;4.25;90.12;102774.44;5070946;28;20117;-48
2023/05/03 01:28:18;;;;;;;18.83;9.23;;;;;;;4.17;90.40;102781.81;5069276;28;20044;-48
2023/05/03 01:30:46;;;;;;;18.48;10.23;;;;;;;4.15;89.91;102783.97;5070909;28;20036;-49
2023/05/03 01:33:47;;;;;;;20.02;10.73;;;;;;;4.17;89.44;102798.25;5070770;28;20020;-48
2023/05/03 01:36:25;;;;;;;18.38;10.85;;;;;;;4.14;90.00;102797.84;5062196;28;20419;-52
2023/05/03 01:38:50;;;;;;;21.67;11.27;;;;;;;4.13;90.31;102797.03;5070832;28;20546;-52
2023/05/03 01:41:18;;;;;;;19.83;11.52;;;;;;;4.09;90.32;102784.78;5070795;28;20033;-50
2023/05/03 01:43:45;;;;;;;20.70;11.20;;;;;;;4.08;90.25;102790.50;5069432;28;20029;-51
2023/05/03 01:46:10;;;;;;;19.92;11.63;;;;;;;4.06;89.96;102791.56;5070992;28;20127;-53
2023/05/03 01:48:35;;;;;;;20.40;11.52;;;;;;;4.05;90.62;102789.03;5071078;28;20315;-49
2023/05/03 01:51:01;;;;;;;20.25;11.50;;;;;;;4.00;90.94;102795.16;5072377;28;20132;-52
2023/05/03 01:53:26;;;;;;;19.88;11.23;;;;;;;3.97;92.50;102800.22;5074389;28;20510;-49
2023/05/03 01:55:51;;;;;;;18.88;10.80;;;;;;;3.94;92.08;102796.00;5072785;28;20032;-48
2023/05/03 01:58:17;;;;;;;18.65;10.98;;;;;;;3.90;92.13;102792.84;5074254;28;20056;-49
2023/05/03 02:00:44;;;;;;;21.65;10.80;;;;;;;3.89;92.79;102790.31;5074375;28;20108;-49
2023/05/03 02:03:09;;;;;;;18.58;11.13;;;;;;;3.87;92.38;102793.25;5074289;28;20024;-48
2023/05/03 02:05:35;;;;;;;20.75;10.55;;;;;;;3.86;92.26;102791.59;5074117;28;20031;-48
2023/05/03 02:08:00;;;;;;;20.38;11.07;;;;;;;3.84;93.44;102785.50;5074156;28;20542;-48
2023/05/03 02:10:25;;;;;;;17.88;10.80;;;;;;;3.84;92.85;102790.09;5072694;28;20040;-51
2023/05/03 02:12:51;;;;;;;18.20;10.90;;;;;;;3.82;92.53;102793.06;5074024;28;20028;-49
2023/05/03 02:15:18;;;;;;;19.60;10.82;;;;;;;3.83;92.22;102793.91;5073916;28;20052;-51
2023/05/03 02:17:46;;;;;;;19.27;10.50;;;;;;;3.81;92.72;102787.81;5074334;28;20115;-51
2023/05/03 02:20:11;;;;;;;20.30;10.98;;;;;;;3.75;93.02;102784.84;5074039;28;20078;-51
2023/05/03 02:22:37;;;;;;;20.45;10.95;;;;;;;3.75;92.73;102792.25;5073639;28;20017;-49
2023/05/03 02:25:02;;;;;;;16.83;10.27;;;;;;;3.72;92.99;102778.97;5073990;28;20087;-48
2023/05/03 02:27:28;;;;;;;19.02;11.02;;;;;;;3.66;93.96;102779.81;5073415;28;20553;-48
2023/05/03 02:29:53;;;;;;;17.40;10.45;;;;;;;3.66;93.01;102780.66;5073702;28;20115;-48
2023/05/03 02:32:19;;;;;;;19.80;10.65;;;;;;;3.63;92.91;102775.63;5073749;28;20067;-51
2023/05/03 02:34:47;;;;;;;18.02;10.77;;;;;;;3.62;93.55;102782.16;5073655;28;20016;-49
2023/05/03 02:37:12;;;;;;;17.83;10.48;;;;;;;3.59;93.45;102772.44;5073828;28;20048;-53
2023/05/03 02:39:38;;;;;;;20.42;10.40;;;;;;;3.56;94.00;102770.16;5072010;28;20525;-52
2023/05/03 02:42:03;;;;;;;19.25;10.57;;;;;;;3.54;94.26;102769.50;5073560;28;20040;-50
2023/05/03 02:44:29;;;;;;;17.65;10.68;;;;;;;3.53;93.99;102762.34;5073498;28;20572;-50
2023/05/03 02:46:54;;;;;;;19.50;10.70;;;;;;;3.52;93.84;102757.09;5073601;28;20138;-50
2023/05/03 02:49:20;;;;;;;19.63;10.70;;;;;;;3.53;94.30;102747.84;5073544;28;20481;-52
2023/05/03 02:51:45;;;;;;;19.65;11.80;;;;;;;3.55;93.80;102746.56;5071924;28;20024;-49
2023/05/03 02:54:11;;;;;;;19.50;10.88;;;;;;;3.55;94.05;102746.56;5073229;28;20028;-50
2023/05/03 02:56:37;;;;;;;20.92;11.00;;;;;;;3.54;93.81;102730.38;5073135;28;20029;-48
2023/05/03 02:59:02;;;;;;;18.60;11.15;;;;;;;3.54;94.08;102735.84;5073258;28;20171;-48
2023/05/03 03:01:28;;;;;;;20.63;11.15;;;;;;;3.54;94.29;102730.38;5072643;28;20036;-49
2023/05/03 03:03:54;;;;;;;20.63;10.73;;;;;;;3.53;94.36;102723.22;5073268;28;20481;-50
2023/05/03 03:06:19;;;;;;;19.77;11.02;;;;;;;3.50;94.22;102724.44;5073261;28;20107;-49
2023/05/03 03:08:45;;;;;;;20.55;11.27;;;;;;;3.43;93.80;102719.00;5073149;28;20031;-49
2023/05/03 03:11:10;;;;;;;20.02;10.70;;;;;;;3.45;94.25;102729.72;5073009;28;20056;-52
2023/05/03 03:13:38;;;;;;;21.10;11.00;;;;;;;3.45;94.47;102735.22;5071513;28;20607;-49
2023/05/03 03:16:05;;;;;;;21.10;10.85;;;;;;;3.41;94.64;102744.88;5073321;28;20392;-52
2023/05/03 03:18:31;;;;;;;19.80;10.90;;;;;;;3.41;95.13;102750.34;5073073;28;20043;-52
2023/05/03 03:20:56;;;;;;;22.13;10.95;;;;;;;3.37;95.09;102749.09;5071507;28;20473;-52
2023/05/03 03:23:21;;;;;;;20.88;11.23;;;;;;;3.34;95.53;102746.78;5073012;28;20044;-50
2023/05/03 03:25:47;;;;;;;19.17;10.85;;;;;;;3.32;94.98;102752.47;5072726;28;20090;-51
2023/05/03 03:28:12;;;;;;;19.77;10.90;;;;;;;3.28;95.92;102748.47;5072664;28;20071;-49
2023/05/03 03:30:37;;;;;;;21.65;11.68;;;;;;;3.26;95.14;102756.88;5072664;28;20025;-49
2023/05/03 03:33:03;;;;;;;21.15;11.27;;;;;;;3.25;95.54;102763.41;5072721;28;20094;-49
2023/05/03 03:35:29;;;;;;;19.48;10.80;;;;;;;3.19;96.27;102758.78;5072549;28;20024;-50
2023/05/03 03:37:55;;;;;;;19.10;10.90;;;;;;;3.20;96.60;102765.94;5072591;28;20079;-52
2023/05/03 03:40:20;;;;;;;19.88;11.25;;;;;;;3.17;96.84;102763.59;5072650;28;20036;-50
2023/05/03 03:42:45;;;;;;;20.33;11.20;;;;;;;3.18;96.37;102758.97;5072146;28;20056;-48
2023/05/03 03:45:11;;;;;;;22.30;11.43;;;;;;;3.16;95.69;102752.88;5072475;28;20051;-51
2023/05/03 03:47:36;;;;;;;19.65;11.52;;;;;;;3.14;96.25;102746.78;5072421;28;20036;-48
2023/05/03 03:50:01;;;;;;;19.90;11.75;;;;;;;3.10;95.69;102741.72;5072206;28;20067;-48
2023/05/03 03:52:27;;;;;;;20.42;11.05;;;;;;;3.10;96.70;102743.63;5070640;28;20441;-48
2023/05/03 03:54:53;;;;;;;20.00;11.27;;;;;;;3.10;96.53;102747.19;5070484;28;20437;-47
2023/05/03 03:57:18;;;;;;;21.52;11.48;;;;;;;3.09;97.15;102747.41;5071830;28;20082;-48
2023/05/03 03:59:44;;;;;;;18.77;11.38;;;;;;;3.08;96.62;102741.06;5071879;28;20028;-49
2023/05/03 04:02:09;;;;;;;19.73;11.63;;;;;;;3.06;96.84;102735.00;5071576;28;20036;-49
2023/05/03 04:04:35;;;;;;;20.52;11.57;;;;;;;3.05;96.54;102741.53;5071470;28;20388;-49
2023/05/03 04:07:00;;;;;;;20.15;11.85;;;;;;;3.03;96.66;102743.63;5071720;28;20016;-50
2023/05/03 04:09:26;;;;;;;19.92;10.93;;;;;;;3.02;97.39;102752.03;5071552;28;20024;-49
2023/05/03 04:11:51;;;;;;;20.67;11.15;;;;;;;3.06;96.57;102758.75;5071701;28;20108;-49
2023/05/03 04:14:16;;;;;;;20.73;11.73;;;;;;;3.04;96.77;102753.50;5071462;28;20495;-50
2023/05/03 04:16:42;;;;;;;20.27;11.45;;;;;;;3.03;97.17;102761.91;5070243;28;20028;-50
2023/05/03 04:19:07;;;;;;;20.23;11.35;;;;;;;3.02;97.45;102772.00;5070096;28;20035;-51
2023/05/03 04:21:32;;;;;;;19.33;10.90;;;;;;;3.02;97.53;102773.91;5070278;28;20044;-49
2023/05/03 04:23:59;;;;;;;22.60;12.63;;;;;;;3.00;97.21;102771.38;5071480;28;20041;-50
2023/05/03 04:26:24;;;;;;;22.45;12.82;;;;;;;3.00;96.77;102770.53;5070155;28;20024;-51
2023/05/03 04:28:50;;;;;;;20.52;11.80;;;;;;;2.99;97.14;102774.31;5071644;28;20059;-52
2023/05/03 04:31:17;;;;;;;24.23;13.80;;;;;;;3.00;97.70;102771.38;5071753;28;20366;-51
2023/05/03 04:33:42;;;;;;;21.50;11.50;;;;;;;2.99;97.38;102777.06;5071700;28;20040;-51
2023/05/03 04:36:08;;;;;;;20.38;10.95;;;;;;;3.04;96.97;102772.66;5071766;28;20028;-50
2023/05/03 04:38:34;;;;;;;19.52;10.95;;;;;;;3.04;97.79;102771.78;5071678;28;20456;-50
2023/05/03 04:40:59;;;;;;;21.55;10.77;;;;;;;3.05;97.59;102773.47;5071638;28;20031;-52
2023/05/03 04:43:24;;;;;;;19.35;10.40;;;;;;;3.07;97.37;102779.59;5071729;28;20480;-50
2023/05/03 04:45:52;;;;;;;20.42;10.25;;;;;;;3.08;97.37;102798.50;5071575;28;20507;-49
2023/05/03 04:48:17;;;;;;;20.60;10.70;;;;;;;3.11;98.00;102791.81;5071754;28;20028;-52
2023/05/03 04:50:43;;;;;;;20.00;10.35;;;;;;;3.10;97.18;102785.47;5071549;28;20499;-52
2023/05/03 04:53:09;;;;;;;20.63;10.45;;;;;;;3.21;97.16;102803.16;5070176;28;20071;-52
2023/05/03 04:55:34;;;;;;;22.95;10.73;;;;;;;3.26;96.91;102805.25;5069967;28;20104;-49
2023/05/03 04:58:00;;;;;;;20.48;10.65;;;;;;;3.33;96.89;102800.66;5070098;28;20029;-52
2023/05/03 05:00:26;;;;;;;22.45;11.18;;;;;;;3.40;95.80;102814.34;5069880;28;20480;-51
2023/05/03 05:02:51;;;;;;;20.75;11.30;;;;;;;3.41;96.91;102818.75;5071477;28;20028;-49
2023/05/03 05:05:16;;;;;;;20.05;11.75;;;;;;;3.48;96.74;102819.63;5071178;28;20028;-49
2023/05/03 05:07:42;;;;;;;21.58;11.55;;;;;;;3.54;96.09;102821.50;5071236;28;20365;-48
2023/05/03 05:10:08;;;;;;;20.90;11.48;;;;;;;3.61;95.61;102821.53;5071210;28;20028;-49
2023/05/03 05:12:33;;;;;;;20.48;11.35;;;;;;;3.67;95.06;102819.84;5071221;28;20028;-49
2023/05/03 05:14:58;;;;;;;20.42;10.90;;;;;;;3.71;94.71;102824.69;5071058;28;20028;-52
2023/05/03 05:17:25;;;;;;;21.60;11.25;;;;;;;3.81;94.61;102831.63;5071189;28;20032;-49
2023/05/03 05:19:51;;;;;;;21.15;11.25;;;;;;;3.86;94.29;102831.81;5071145;28;20093;-52
2023/05/03 05:22:16;;;;;;;20.00;10.93;;;;;;;3.89;94.62;102831.41;5071052;28;20464;-48
2023/05/03 05:24:42;;;;;;;20.17;10.93;;;;;;;3.95;94.66;102832.44;5070697;28;20432;-51
2023/05/03 05:27:07;;;;;;;19.85;11.18;;;;;;;4.00;94.02;102827.16;5074892;28;20519;-52
2023/05/03 05:29:33;;;;;;;21.65;12.02;;;;;;;4.00;93.67;102829.91;5074871;28;20418;-52
2023/05/03 05:32:00;;;;;;;21.02;11.38;;;;;;;4.04;93.75;102829.25;5075041;28;20055;-49
2023/05/03 05:34:25;;;;;;;20.00;11.52;;;;;;;4.13;94.05;102834.50;5073307;28;20388;-49
2023/05/03 05:36:51;;;;;;;22.80;11.88;;;;;;;4.18;93.76;102835.56;5074671;28;20028;-49
2023/05/03 05:39:16;;;;;;;22.75;12.02;;;;;;;4.25;93.82;102840.19;5074865;28;20040;-51
2023/05/03 05:41:41;;;;;;;20.05;11.05;;;;;;;4.35;93.32;102832.34;5074749;28;20040;-50
2023/05/03 05:44:07;;;;;;;21.50;11.45;;;;;;;4.43;92.61;102834.03;5074790;28;20028;-50
2023/05/03 05:46:32;;;;;;;21.20;11.57;;;;;;;4.50;92.21;102832.09;5074510;28;20024;-49
2023/05/03 05:48:57;;;;;;;20.90;10.70;;;;;;;4.60;92.27;102828.91;5074506;28;20025;-48
2023/05/03 05:51:22;;;;;;;20.88;11.05;;;;;;;4.65;91.53;102840.91;5074394;28;20024;-48
2023/05/03 05:53:48;;;;;;;24.05;11.13;;;;;;;4.74;91.19;102840.66;5074372;28;20056;-53
2023/05/03 05:56:14;;;;;;;20.02;10.77;;;;;;;4.83;91.27;102844.84;5074404;28;20467;-48
2023/05/03 05:58:39;;;;;;;21.27;10.70;;;;;;;4.92;90.25;102849.00;5074455;28;20025;-48
2023/05/03 06:01:04;;;;;;;19.80;11.20;;;;;;;4.97;89.97;102835.47;5072830;28;20040;-50
2023/05/03 06:03:30;;;;;;;21.15;11.60;;;;;;;5.09;89.82;102840.28;5074245;28;20453;-50
2023/05/03 06:05:56;;;;;;;25.30;11.30;;;;;;;5.18;89.32;102844.44;5074168;28;20056;-49
2023/05/03 06:08:21;;;;;;;21.17;11.23;;;;;;;5.28;89.26;102846.72;5072873;28;20536;-49
2023/05/03 06:10:46;;;;;;;21.75;11.25;;;;;;;5.34;88.99;102840.31;5072822;28;20039;-48
2023/05/03 06:13:12;;;;;;;21.02;10.93;;;;;;;5.44;88.25;102840.69;5074094;28;20031;-49
2023/05/03 06:15:39;;;;;;;20.95;11.02;;;;;;;5.52;87.73;102838.72;5073914;28;20396;-48
2023/05/03 06:18:04;;;;;;;21.38;10.90;;;;;;;5.60;87.42;102843.94;5073803;28;20093;-49
2023/05/03 06:20:30;;;;;;;21.48;11.30;;;;;;;5.68;87.48;102843.66;5073620;28;20418;-49
2023/05/03 06:22:55;;;;;;;19.77;10.82;;;;;;;5.71;86.72;102828.66;5073731;28;20441;-49
2023/05/03 06:25:20;;;;;;;19.77;11.02;;;;;;;5.79;86.16;102828.38;5073881;28;20405;-49
2023/05/03 06:27:46;;;;;;;20.77;10.80;;;;;;;5.87;86.15;102838.22;5073577;28;20545;-49
2023/05/03 06:30:11;;;;;;;21.98;10.57;;;;;;;5.97;86.35;102826.72;5073789;28;20424;-50
2023/05/03 06:32:41;;;;;;;22.67;11.60;;;;;;;6.04;85.61;102828.38;5073845;28;20048;-49
2023/05/03 06:35:08;;;;;;;22.15;11.30;;;;;;;6.13;85.74;102833.59;5072304;28;20500;-49
2023/05/03 06:37:33;;;;;;;21.73;10.95;;;;;;;6.17;85.34;102829.28;5072662;28;20075;-49
2023/05/03 06:39:59;;;;;;;24.15;11.27;;;;;;;6.22;84.57;102823.97;5072545;28;20063;-49
2023/05/03 06:42:24;;;;;;;20.48;11.27;;;;;;;6.31;84.75;102816.25;5073949;28;20056;-47
2023/05/03 06:44:50;;;;;;;22.10;11.00;;;;;;;6.42;84.66;102814.66;5073526;28;20052;-47
2023/05/03 06:47:15;;;;;;;19.05;10.50;;;;;;;6.52;84.24;102810.28;5073695;28;20028;-47
2023/05/03 06:49:40;;;;;;;22.33;11.40;;;;;;;6.63;83.39;102805.91;5073623;28;20501;-48
2023/05/03 06:52:06;;;;;;;21.05;10.88;;;;;;;6.70;82.45;102812.19;5073818;28;20067;-48
2023/05/03 06:54:31;;;;;;;21.38;11.07;;;;;;;6.77;81.33;102814.00;5073509;28;20028;-49
2023/05/03 06:56:56;;;;;;;20.75;10.63;;;;;;;6.81;81.23;102817.94;5073399;28;20387;-51
2023/05/03 06:59:22;;;;;;;20.00;11.10;;;;;;;6.88;80.15;102813.22;5071982;28;20422;-50
2023/05/03 07:01:47;;;;;;;25.13;11.27;;;;;;;6.91;80.07;102809.16;5073419;28;20484;-49
2023/05/03 07:04:12;;;;;;;20.80;10.98;;;;;;;7.01;80.42;102803.94;5073239;28;20030;-51
2023/05/03 07:06:38;;;;;;;21.33;10.88;;;;;;;7.09;80.04;102802.75;5073112;28;20036;-48
2023/05/03 07:09:03;;;;;;;21.23;11.07;;;;;;;7.18;79.79;102801.34;5073012;28;20025;-49
2023/05/03 07:11:29;;;;;;;20.05;11.07;;;;;;;7.24;78.61;102805.94;5072970;28;20488;-52
2023/05/03 07:13:54;;;;;;;21.80;11.80;;;;;;;7.26;77.94;102809.28;5073085;28;20020;-49
2023/05/03 07:16:20;;;;;;;18.60;10.65;;;;;;;7.36;78.32;102816.13;5073018;28;20032;-50
2023/05/03 07:18:46;;;;;;;19.15;10.90;;;;;;;7.43;77.18;102803.91;5073051;28;20107;-52
2023/05/03 07:21:12;;;;;;;20.20;10.75;;;;;;;7.52;77.20;102811.84;5072858;28;20453;-50
2023/05/03 07:23:38;;;;;;;19.88;10.52;;;;;;;7.60;76.84;102808.75;5072968;28;20032;-49
2023/05/03 07:26:03;;;;;;;18.67;10.40;;;;;;;7.69;76.79;102811.97;5072929;28;20017;-51
2023/05/03 07:28:29;;;;;;;20.23;9.98;;;;;;;7.79;75.32;102807.53;5072465;28;20040;-49
2023/05/03 07:30:54;;;;;;;18.30;10.30;;;;;;;7.91;74.97;102807.56;5072620;28;20107;-49
2023/05/03 07:33:19;;;;;;;20.83;10.77;;;;;;;7.95;73.93;102808.75;5072588;28;20518;-49
2023/05/03 07:35:45;;;;;;;20.00;10.55;;;;;;;8.04;73.96;102808.38;5072415;28;20035;-50
2023/05/03 07:38:12;;;;;;;20.50;10.30;;;;;;;8.05;73.27;102799.03;5072571;28;20032;-48
2023/05/03 07:40:37;;;;;;;20.58;10.07;;;;;;;8.16;72.84;102806.47;5072795;28;20021;-49
2023/05/03 07:43:02;;;;;;;17.83;9.82;;;;;;;8.21;71.89;102803.84;5072539;28;20074;-49
2023/05/03 07:45:28;;;;;;;18.88;9.90;;;;;;;8.21;71.04;102808.50;5072644;28;20028;-48
2023/05/03 07:47:55;;;;;;;18.95;9.88;;;;;;;8.20;71.25;102793.03;5071042;28;20115;-52
2023/05/03 07:50:21;;;;;;;18.33;9.85;;;;;;;8.33;71.95;102794.69;5072453;28;20025;-50
2023/05/03 07:52:50;;;;;;;21.08;10.07;;;;;;;8.44;70.97;102785.53;5072496;28;20036;-52
2023/05/03 07:55:16;;;;;;;17.95;9.82;;;;;;;8.55;70.40;102781.94;5070928;28;20479;-52
2023/05/03 07:57:42;;;;;;;18.58;9.60;;;;;;;8.66;70.74;102780.22;5071127;28;20357;-53
2023/05/03 08:00:09;;;;;;;19.67;10.07;;;;;;;8.77;69.67;102773.00;5072424;28;20048;-52
2023/05/03 08:02:35;;;;;;;20.42;9.73;;;;;;;8.83;66.95;102779.47;5072451;28;20539;-52
2023/05/03 08:05:00;;;;;;;16.73;9.63;;;;;;;8.87;67.49;102769.59;5072334;28;20108;-51
2023/05/03 08:07:27;;;;;;;17.33;9.63;;;;;;;8.96;68.13;102772.78;5072159;28;20104;-51
2023/05/03 08:09:52;;;;;;;20.92;10.20;;;;;;;9.05;67.89;102751.97;5072285;28;20024;-52
2023/05/03 08:12:18;;;;;;;19.00;9.50;;;;;;;9.08;65.47;102758.91;5072257;28;20093;-51
2023/05/03 08:14:43;;;;;;;19.40;9.90;;;;;;;9.15;66.08;102756.81;5072059;28;20027;-53
2023/05/03 08:17:08;;;;;;;19.13;10.20;;;;;;;9.22;66.33;102763.03;5072190;28;20508;-48
2023/05/03 08:19:34;;;;;;;19.90;9.93;;;;;;;9.19;65.04;102741.44;5072122;28;20557;-52
2023/05/03 08:22:00;;;;;;;18.92;9.73;;;;;;;9.28;65.17;102751.00;5072034;28;20029;-52
2023/05/03 08:24:25;;;;;;;18.83;9.90;;;;;;;9.31;64.55;102744.13;5072018;28;20438;-48
2023/05/03 08:26:51;;;;;;;19.35;9.48;;;;;;;9.40;64.48;102750.09;5070515;28;20028;-51
2023/05/03 08:29:16;;;;;;;18.90;9.32;;;;;;;9.47;63.42;102750.75;5070462;28;20553;-48
2023/05/03 08:31:42;;;;;;;18.52;9.50;;;;;;;9.56;62.55;102743.69;5071970;28;20112;-50
2023/05/03 08:34:09;;;;;;;18.02;9.60;;;;;;;9.69;62.85;102750.81;5071752;28;20041;-49
2023/05/03 08:36:37;;;;;;;17.02;9.15;;;;;;;9.78;62.13;102751.19;5072070;28;20086;-49
2023/05/03 08:39:05;;;;;;;17.02;9.25;;;;;;;9.87;62.23;102754.38;5071776;28;20031;-49
2023/05/03 08:41:31;;;;;;;19.98;9.10;;;;;;;9.90;61.18;102746.41;5071871;28;20116;-52
2023/05/03 08:43:58;;;;;;;17.65;9.23;;;;;;;9.94;60.92;102743.97;5070303;28;20119;-48
2023/05/03 08:46:27;;;;;;;17.85;9.10;;;;;;;9.91;61.39;102734.25;5071681;28;20086;-52
2023/05/03 08:48:53;;;;;;;19.95;9.90;;;;;;;10.10;61.12;102736.72;5071677;28;20480;-51
2023/05/03 08:51:21;;;;;;;17.58;9.48;;;;;;;10.11;61.42;102722.63;5071502;28;20028;-51
2023/05/03 08:53:46;;;;;;;17.23;9.02;;;;;;;10.18;60.57;102741.78;5071519;28;20063;-49
2023/05/03 08:56:23;;;;;;;16.88;8.98;;;;;;;10.26;61.19;102724.75;5071620;28;20092;-49
2023/05/03 08:58:49;;;;;;;18.55;9.05;;;;;;;10.35;59.18;102733.44;5069785;28;20047;-50
2023/05/03 09:01:14;;;;;;;18.65;9.52;;;;;;;10.44;59.39;102736.59;5071301;28;20039;-48
2023/05/03 09:03:47;;;;;;;19.88;8.60;;;;;;;10.55;59.42;102751.41;5071493;28;20025;-52
2023/05/03 09:06:26;;;;;;;17.50;8.75;;;;;;;10.69;59.47;102749.06;5071580;28;20032;-50
2023/05/03 09:08:53;;;;;;;17.75;8.82;;;;;;;10.69;57.63;102751.84;5071611;28;20036;-51
2023/05/03 09:11:30;;;;;;;18.02;8.80;;;;;;;10.73;58.54;102750.19;5071162;28;20028;-48
2023/05/03 09:14:14;;;;;;;16.92;8.68;;;;;;;10.83;58.61;102755.84;5071432;28;20439;-49
2023/05/03 09:16:43;;;;;;;18.38;9.00;;;;;;;10.86;58.02;102751.75;5071449;28;20033;-48
2023/05/03 09:19:11;;;;;;;21.42;10.15;;;;;;;10.72;57.89;102751.31;5071410;28;20056;-48
2023/05/03 09:21:43;;;;;;;20.88;9.43;;;;;;;10.89;58.86;102752.06;5071389;28;20425;-50
2023/05/03 09:24:20;;;;;;;19.00;9.32;;;;;;;10.98;57.78;102752.41;5071365;28;20028;-51
2023/05/03 09:26:50;;;;;;;18.17;9.45;;;;;;;11.04;57.02;102744.97;5071390;28;20142;-51
2023/05/03 09:29:27;;;;;;;17.45;8.95;;;;;;;11.14;57.88;102749.78;5071257;28;20056;-50
2023/05/03 09:32:07;;;;;;;17.95;9.38;;;;;;;11.21;57.40;102750.41;5069954;28;20112;-52
2023/05/03 09:34:34;;;;;;;18.67;9.88;;;;;;;11.25;55.94;102745.97;5071401;28;20397;-50
2023/05/03 09:37:00;;;;;;;17.92;9.13;;;;;;;11.33;56.69;102741.91;5071317;28;20036;-52
2023/05/03 09:39:25;;;;;;;19.58;9.20;;;;;;;11.35;56.49;102742.47;5071206;28;20038;-49
2023/05/03 09:41:50;;;;;;;19.27;9.02;;;;;;;11.51;56.73;102743.44;5071055;28;20116;-49
2023/05/03 09:44:16;;;;;;;19.13;9.15;;;;;;;11.69;56.12;102742.16;5070970;28;20044;-49
2023/05/03 09:47:04;;;;;;;17.73;9.18;;;;;;;11.76;56.24;102736.38;5071039;28;20082;-49
2023/05/03 09:49:31;;;;;;;20.50;9.50;;;;;;;11.79;54.92;102730.31;5071078;28;20086;-49
2023/05/03 09:51:58;;;;;;;19.15;9.38;;;;;;;11.93;53.58;102723.16;5070984;28;20094;-52
2023/05/03 09:54:24;;;;;;;18.42;9.38;;;;;;;12.05;53.56;102736.84;5070936;28;20193;-49
2023/05/03 09:56:51;;;;;;;17.17;9.10;;;;;;;12.18;53.56;102727.22;5070970;28;20028;-48
2023/05/03 09:59:16;;;;;;;19.40;9.10;;;;;;;12.29;53.60;102731.66;5070997;28;20099;-48
2023/05/03 10:01:43;;;;;;;17.88;9.30;;;;;;;12.29;53.11;102723.34;5069515;28;20104;-48
2023/05/03 10:04:10;;;;;;;19.17;9.27;;;;;;;12.40;53.36;102720.63;5070915;28;20032;-51
2023/05/03 10:06:40;;;;;;;17.48;9.50;;;;;;;12.54;53.16;102720.94;5070908;28;20031;-49
2023/05/03 10:09:25;;;;;;;18.67;9.40;;;;;;;12.47;52.58;102724.81;5069639;28;20080;-49
2023/05/03 10:11:52;;;;;;;19.05;8.93;;;;;;;12.30;51.72;102733.34;5073524;28;20036;-49
2023/05/03 10:14:21;;;;;;;17.75;9.25;;;;;;;12.34;53.71;102728.09;5074357;28;20032;-48
2023/05/03 10:16:50;;;;;;;20.67;9.52;;;;;;;12.23;53.06;102729.19;5074511;28;20174;-49
2023/05/03 10:19:26;;;;;;;19.20;9.40;;;;;;;12.22;53.10;102728.31;5072995;28;20032;-52
2023/05/03 10:22:10;;;;;;;20.05;9.10;;;;;;;12.35;53.35;102728.94;5074265;28;20107;-52
2023/05/03 10:24:58;;;;;;;19.02;9.57;;;;;;;12.41;52.75;102727.84;5074153;28;20518;-51
2023/05/03 10:27:25;;;;;;;19.20;9.50;;;;;;;12.29;51.56;102719.75;5073897;28;20040;-51
2023/05/03 10:29:50;;;;;;;18.80;9.27;;;;;;;12.40;52.13;102720.63;5073861;28;20400;-48
2023/05/03 10:32:30;;;;;;;17.45;9.20;;;;;;;12.63;53.33;102719.28;5074033;28;20021;-53
2023/05/03 10:35:02;;;;;;;17.85;8.95;;;;;;;12.91;52.23;102726.28;5073826;28;20042;-49
2023/05/03 10:37:28;;;;;;;18.07;9.50;;;;;;;12.85;51.31;102726.56;5073998;28;20046;-53
2023/05/03 10:39:54;;;;;;;17.70;9.27;;;;;;;12.73;51.45;102730.41;5073699;28;20442;-49
2023/05/03 10:42:25;;;;;;;19.42;9.02;;;;;;;12.64;50.60;102729.28;5073637;28;20031;-48
2023/05/03 10:44:50;;;;;;;19.65;9.73;;;;;;;12.76;51.10;102723.47;5073470;28;20032;-50
2023/05/03 10:47:18;;;;;;;17.40;8.98;;;;;;;12.84;51.71;102731.28;5073626;28;20039;-48
2023/05/03 10:49:44;;;;;;;18.58;9.43;;;;;;;12.90;50.91;102732.94;5073391;28;20492;-52
2023/05/03 10:52:34;;;;;;;16.95;8.80;;;;;;;12.88;51.40;102723.22;5073463;28;20063;-50
2023/05/03 10:54:59;;;;;;;17.75;9.38;;;;;;;12.88;50.81;102720.47;5073322;28;20081;-50
2023/05/03 10:57:31;;;;;;;19.98;9.45;;;;;;;13.04;50.87;102712.94;5073391;28;20024;-51
2023/05/03 10:59:57;;;;;;;19.67;9.60;;;;;;;13.10;49.91;102721.00;5073261;28;20392;-49
2023/05/03 11:02:30;;;;;;;19.15;9.80;;;;;;;13.33;49.71;102717.94;5073551;28;20033;-50
2023/05/03 11:05:02;;;;;;;18.35;9.40;;;;;;;13.37;48.60;102714.31;5073330;28;20031;-51
2023/05/03 11:07:28;;;;;;;18.93;9.50;;;;;;;13.55;48.78;102712.94;5073222;28;20035;-53
2023/05/03 11:09:55;;;;;;;17.17;8.98;;;;;;;13.66;48.77;102710.97;5073234;28;20020;-52
2023/05/03 11:12:20;;;;;;;18.67;9.18;;;;;;;13.78;48.85;102699.56;5073172;28;20040;-52
2023/05/03 11:14:45;;;;;;;17.40;9.10;;;;;;;13.77;48.59;102703.47;5073172;28;20071;-52
2023/05/03 11:17:11;;;;;;;18.00;9.50;;;;;;;13.66;48.80;102710.16;5072921;28;20475;-51
2023/05/03 11:19:38;;;;;;;17.20;9.48;;;;;;;13.51;48.66;102689.59;5071857;28;20021;-51